sensor_id;sensor_type;location;lat;lon;timestamp;pressure;altitude;pressure_sealevel;temperature;humidity
27304;BME280;14791;52.392;13.092;2022-08-19T00:00:12;100580.73;;;28.00;45.94
27304;BME280;14791;52.392;13.092;2022-08-19T00:02:43;100573.88;;;28.00;46.11
27304;BME280;14791;52.392;13.092;2022-08-19T00:05:14;100561.83;;;28.01;46.01
27304;BME280;14791;52.392;13.092;2022-08-19T00:07:43;100548.09;;;28.01;46.05
27304;BME280;14791;52.392;13.092;2022-08-19T00:10:14;100543.48;;;28.02;46.00
27304;BME280;14791;52.392;13.092;2022-08-19T00:12:44;100535.75;;;28.01;46.03
27304;BME280;14791;52.392;13.092;2022-08-19T00:15:15;100523.39;;;28.01;46.00
27304;BME280;14791;52.392;13.092;2022-08-19T00:17:45;100508.00;;;28.00;45.99
27304;BME280;14791;52.392;13.092;2022-08-19T00:20:18;100496.39;;;27.98;46.14
27304;BME280;14791;52.392;13.092;2022-08-19T00:22:47;100490.27;;;27.96;46.47
27304;BME280;14791;52.392;13.092;2022-08-19T00:25:17;100501.37;;;27.92;46.71
27304;BME280;14791;52.392;13.092;2022-08-19T00:27:46;100516.88;;;27.89;46.60
27304;BME280;14791;52.392;13.092;2022-08-19T00:30:15;100525.75;;;27.84;46.54
27304;BME280;14791;52.392;13.092;2022-08-19T00:32:44;100541.98;;;27.79;46.60
27304;BME280;14791;52.392;13.092;2022-08-19T00:35:13;100541.98;;;27.72;46.65
27304;BME280;14791;52.392;13.092;2022-08-19T00:37:41;100547.59;;;27.68;46.86
27304;BME280;14791;52.392;13.092;2022-08-19T00:40:12;100537.79;;;27.63;46.97
27304;BME280;14791;52.392;13.092;2022-08-19T00:42:42;100542.30;;;27.60;47.41
27304;BME280;14791;52.392;13.092;2022-08-19T00:45:16;100533.44;;;27.58;47.86
27304;BME280;14791;52.392;13.092;2022-08-19T00:47:45;100537.45;;;27.55;48.20
27304;BME280;14791;52.392;13.092;2022-08-19T00:50:17;100534.60;;;27.53;48.71
27304;BME280;14791;52.392;13.092;2022-08-19T00:52:48;100522.39;;;27.49;48.54
27304;BME280;14791;52.392;13.092;2022-08-19T00:55:24;100521.55;;;27.42;48.61
27304;BME280;14791;52.392;13.092;2022-08-19T00:58:08;100514.04;;;27.33;48.83
27304;BME280;14791;52.392;13.092;2022-08-19T01:00:37;100514.34;;;27.21;49.16
27304;BME280;14791;52.392;13.092;2022-08-19T01:03:08;100512.91;;;27.07;49.18
27304;BME280;14791;52.392;13.092;2022-08-19T01:05:39;100513.66;;;26.99;49.58
27304;BME280;14791;52.392;13.092;2022-08-19T01:08:09;100512.16;;;26.89;49.81
27304;BME280;14791;52.392;13.092;2022-08-19T01:10:41;100522.90;;;26.84;49.89
27304;BME280;14791;52.392;13.092;2022-08-19T01:13:10;100528.66;;;26.79;50.17
27304;BME280;14791;52.392;13.092;2022-08-19T01:15:46;100539.20;;;26.75;50.25
27304;BME280;14791;52.392;13.092;2022-08-19T01:18:17;100537.08;;;26.70;50.42
27304;BME280;14791;52.392;13.092;2022-08-19T01:20:47;100536.84;;;26.65;50.96
27304;BME280;14791;52.392;13.092;2022-08-19T01:23:16;100532.09;;;26.63;51.49
27304;BME280;14791;52.392;13.092;2022-08-19T01:25:48;100528.71;;;26.61;53.04
27304;BME280;14791;52.392;13.092;2022-08-19T01:28:26;100529.38;;;26.52;55.07
27304;BME280;14791;52.392;13.092;2022-08-19T01:30:55;100537.20;;;26.38;56.70
27304;BME280;14791;52.392;13.092;2022-08-19T01:33:24;100544.41;;;26.22;57.89
27304;BME280;14791;52.392;13.092;2022-08-19T01:35:53;100543.59;;;26.10;59.12
27304;BME280;14791;52.392;13.092;2022-08-19T01:38:25;100549.96;;;26.00;59.94
27304;BME280;14791;52.392;13.092;2022-08-19T01:40:55;100564.73;;;25.95;60.55
27304;BME280;14791;52.392;13.092;2022-08-19T01:43:25;100567.64;;;25.87;61.18
27304;BME280;14791;52.392;13.092;2022-08-19T01:45:54;100565.99;;;25.82;61.57
27304;BME280;14791;52.392;13.092;2022-08-19T01:48:24;100556.83;;;25.79;61.84
27304;BME280;14791;52.392;13.092;2022-08-19T01:50:53;100566.47;;;25.75;62.13
27304;BME280;14791;52.392;13.092;2022-08-19T01:53:22;100566.00;;;25.71;62.58
27304;BME280;14791;52.392;13.092;2022-08-19T01:55:51;100569.98;;;25.68;62.93
27304;BME280;14791;52.392;13.092;2022-08-19T01:58:22;100555.05;;;25.71;63.12
27304;BME280;14791;52.392;13.092;2022-08-19T02:00:53;100550.95;;;25.71;63.21
27304;BME280;14791;52.392;13.092;2022-08-19T02:03:22;100541.26;;;25.68;63.01
27304;BME280;14791;52.392;13.092;2022-08-19T02:05:56;100535.66;;;25.66;62.98
27304;BME280;14791;52.392;13.092;2022-08-19T02:08:27;100516.80;;;25.60;63.11
27304;BME280;14791;52.392;13.092;2022-08-19T02:10:56;100527.68;;;25.54;63.09
27304;BME280;14791;52.392;13.092;2022-08-19T02:13:26;100506.09;;;25.48;63.28
27304;BME280;14791;52.392;13.092;2022-08-19T02:15:55;100508.05;;;25.43;63.35
27304;BME280;14791;52.392;13.092;2022-08-19T02:18:25;100509.35;;;25.37;63.51
27304;BME280;14791;52.392;13.092;2022-08-19T02:20:54;100510.78;;;25.33;63.42
27304;BME280;14791;52.392;13.092;2022-08-19T02:23:23;100510.53;;;25.28;63.68
27304;BME280;14791;52.392;13.092;2022-08-19T02:25:52;100504.09;;;25.24;63.81
27304;BME280;14791;52.392;13.092;2022-08-19T02:28:21;100480.21;;;25.22;63.73
27304;BME280;14791;52.392;13.092;2022-08-19T02:30:50;100491.55;;;25.19;63.91
27304;BME280;14791;52.392;13.092;2022-08-19T02:33:18;100483.69;;;25.16;64.01
27304;BME280;14791;52.392;13.092;2022-08-19T02:35:47;100473.81;;;25.15;64.02
27304;BME280;14791;52.392;13.092;2022-08-19T02:38:16;100467.16;;;25.14;64.19
27304;BME280;14791;52.392;13.092;2022-08-19T02:43:27;100445.52;;;25.12;64.47
27304;BME280;14791;52.392;13.092;2022-08-19T02:45:56;100427.76;;;25.12;64.38
27304;BME280;14791;52.392;13.092;2022-08-19T02:48:25;100425.02;;;25.12;64.27
27304;BME280;14791;52.392;13.092;2022-08-19T02:50:54;100433.22;;;25.12;64.11
27304;BME280;14791;52.392;13.092;2022-08-19T02:53:26;100446.88;;;25.12;64.12
27304;BME280;14791;52.392;13.092;2022-08-19T02:55:55;100448.78;;;25.12;64.22
27304;BME280;14791;52.392;13.092;2022-08-19T02:58:24;100433.94;;;25.10;64.14
27304;BME280;14791;52.392;13.092;2022-08-19T03:00:55;100430.67;;;25.11;64.00
27304;BME280;14791;52.392;13.092;2022-08-19T03:03:25;100435.83;;;25.10;64.07
27304;BME280;14791;52.392;13.092;2022-08-19T03:06:09;100443.16;;;25.09;64.14
27304;BME280;14791;52.392;13.092;2022-08-19T03:08:35;100440.77;;;25.10;63.90
27304;BME280;14791;52.392;13.092;2022-08-19T03:11:04;100457.56;;;25.07;64.05
27304;BME280;14791;52.392;13.092;2022-08-19T03:13:33;100459.77;;;25.08;64.22
27304;BME280;14791;52.392;13.092;2022-08-19T03:16:05;100454.61;;;25.09;64.11
27304;BME280;14791;52.392;13.092;2022-08-19T03:18:34;100455.45;;;25.09;64.26
27304;BME280;14791;52.392;13.092;2022-08-19T03:21:03;100445.89;;;25.09;64.17
27304;BME280;14791;52.392;13.092;2022-08-19T03:23:33;100443.50;;;25.10;64.09
27304;BME280;14791;52.392;13.092;2022-08-19T03:26:04;100443.81;;;25.11;63.98
27304;BME280;14791;52.392;13.092;2022-08-19T03:28:33;100442.13;;;25.10;64.02
27304;BME280;14791;52.392;13.092;2022-08-19T03:31:09;100443.50;;;25.10;63.96
27304;BME280;14791;52.392;13.092;2022-08-19T03:33:37;100437.84;;;25.12;63.91
27304;BME280;14791;52.392;13.092;2022-08-19T03:36:12;100435.30;;;25.10;63.96
27304;BME280;14791;52.392;13.092;2022-08-19T03:38:42;100429.84;;;25.10;63.89
27304;BME280;14791;52.392;13.092;2022-08-19T03:41:18;100435.30;;;25.10;63.71
27304;BME280;14791;52.392;13.092;2022-08-19T03:43:53;100435.48;;;25.09;63.59
27304;BME280;14791;52.392;13.092;2022-08-19T03:46:28;100432.97;;;25.07;63.56
27304;BME280;14791;52.392;13.092;2022-08-19T03:48:59;100427.88;;;25.04;63.55
27304;BME280;14791;52.392;13.092;2022-08-19T03:51:33;100421.05;;;25.04;63.47
27304;BME280;14791;52.392;13.092;2022-08-19T03:54:07;100407.08;;;25.03;63.32
27304;BME280;14791;52.392;13.092;2022-08-19T03:56:38;100398.88;;;25.03;63.37
27304;BME280;14791;52.392;13.092;2022-08-19T03:59:11;100401.80;;;25.01;63.35
27304;BME280;14791;52.392;13.092;2022-08-19T04:01:41;100413.91;;;25.03;63.39
27304;BME280;14791;52.392;13.092;2022-08-19T04:04:10;100401.61;;;25.03;63.33
27304;BME280;14791;52.392;13.092;2022-08-19T04:06:39;100414.22;;;25.04;63.33
27304;BME280;14791;52.392;13.092;2022-08-19T04:09:10;100420.34;;;25.06;63.33
27304;BME280;14791;52.392;13.092;2022-08-19T04:11:42;100424.77;;;25.07;63.27
27304;BME280;14791;52.392;13.092;2022-08-19T04:14:14;100431.73;;;25.10;63.18
27304;BME280;14791;52.392;13.092;2022-08-19T04:16:43;100438.69;;;25.12;63.00
27304;BME280;14791;52.392;13.092;2022-08-19T04:19:14;100440.36;;;25.13;62.79
27304;BME280;14791;52.392;13.092;2022-08-19T04:21:48;100440.70;;;25.14;62.62
27304;BME280;14791;52.392;13.092;2022-08-19T04:24:19;100442.38;;;25.15;62.45
27304;BME280;14791;52.392;13.092;2022-08-19T04:26:49;100439.66;;;25.15;62.39
27304;BME280;14791;52.392;13.092;2022-08-19T04:29:20;100441.33;;;25.16;62.35
27304;BME280;14791;52.392;13.092;2022-08-19T04:31:53;100445.95;;;25.16;62.40
27304;BME280;14791;52.392;13.092;2022-08-19T04:34:26;100447.48;;;25.18;62.33
27304;BME280;14791;52.392;13.092;2022-08-19T04:36:57;100451.58;;;25.18;62.35
27304;BME280;14791;52.392;13.092;2022-08-19T04:39:29;100454.96;;;25.20;62.31
27304;BME280;14791;52.392;13.092;2022-08-19T04:42:18;100458.34;;;25.22;62.29
27304;BME280;14791;52.392;13.092;2022-08-19T04:45:12;100459.72;;;25.22;62.18
27304;BME280;14791;52.392;13.092;2022-08-19T04:47:43;100461.08;;;25.22;62.14
27304;BME280;14791;52.392;13.092;2022-08-19T04:50:12;100458.81;;;25.26;62.04
27304;BME280;14791;52.392;13.092;2022-08-19T04:52:41;100455.80;;;25.32;61.79
27304;BME280;14791;52.392;13.092;2022-08-19T04:55:11;100452.35;;;25.34;61.67
27304;BME280;14791;52.392;13.092;2022-08-19T04:57:40;100457.41;;;25.37;61.58
27304;BME280;14791;52.392;13.092;2022-08-19T05:00:10;100451.54;;;25.40;61.49
27304;BME280;14791;52.392;13.092;2022-08-19T05:02:39;100455.27;;;25.43;61.33
27304;BME280;14791;52.392;13.092;2022-08-19T05:05:08;100448.02;;;25.46;61.15
27304;BME280;14791;52.392;13.092;2022-08-19T05:07:38;100444.58;;;25.48;61.20
27304;BME280;14791;52.392;13.092;2022-08-19T05:10:09;100439.00;;;25.52;61.10
27304;BME280;14791;52.392;13.092;2022-08-19T05:12:39;100442.73;;;25.55;61.14
27304;BME280;14791;52.392;13.092;2022-08-19T05:15:08;100443.81;;;25.61;60.96
27304;BME280;14791;52.392;13.092;2022-08-19T05:17:37;100434.89;;;25.63;60.95
27304;BME280;14791;52.392;13.092;2022-08-19T05:20:09;100441.13;;;25.67;61.04
27304;BME280;14791;52.392;13.092;2022-08-19T05:22:56;100430.61;;;25.71;60.97
27304;BME280;14791;52.392;13.092;2022-08-19T05:25:25;100435.70;;;25.74;60.84
27304;BME280;14791;52.392;13.092;2022-08-19T05:27:54;100434.77;;;25.78;60.64
27304;BME280;14791;52.392;13.092;2022-08-19T05:30:23;100439.82;;;25.81;60.58
27304;BME280;14791;52.392;13.092;2022-08-19T05:32:52;100447.95;;;25.85;60.46
27304;BME280;14791;52.392;13.092;2022-08-19T05:35:22;100443.47;;;25.88;60.41
27304;BME280;14791;52.392;13.092;2022-08-19T05:37:51;100458.45;;;25.92;60.50
27304;BME280;14791;52.392;13.092;2022-08-19T05:40:22;100469.43;;;25.99;60.40
27304;BME280;14791;52.392;13.092;2022-08-19T05:42:50;100470.39;;;26.02;60.33
27304;BME280;14791;52.392;13.092;2022-08-19T05:45:21;100481.91;;;26.08;60.31
27304;BME280;14791;52.392;13.092;2022-08-19T05:47:49;100489.52;;;26.13;60.19
27304;BME280;14791;52.392;13.092;2022-08-19T05:50:18;100478.80;;;26.18;60.01
27304;BME280;14791;52.392;13.092;2022-08-19T05:52:47;100491.03;;;26.22;60.06
27304;BME280;14791;52.392;13.092;2022-08-19T05:55:16;100494.31;;;26.28;60.02
27304;BME280;14791;52.392;13.092;2022-08-19T05:57:47;100492.14;;;26.34;59.89
27304;BME280;14791;52.392;13.092;2022-08-19T06:00:16;100483.31;;;26.39;59.70
27304;BME280;14791;52.392;13.092;2022-08-19T06:02:45;100477.53;;;26.44;59.73
27304;BME280;14791;52.392;13.092;2022-08-19T06:05:14;100473.34;;;26.48;59.67
27304;BME280;14791;52.392;13.092;2022-08-19T06:07:43;100464.02;;;26.54;59.57
27304;BME280;14791;52.392;13.092;2022-08-19T06:10:12;100460.97;;;26.59;59.46
27304;BME280;14791;52.392;13.092;2022-08-19T06:12:41;100457.92;;;26.65;59.46
27304;BME280;14791;52.392;13.092;2022-08-19T06:15:12;100454.67;;;26.72;59.35
27304;BME280;14791;52.392;13.092;2022-08-19T06:17:42;100448.38;;;26.78;59.26
27304;BME280;14791;52.392;13.092;2022-08-19T06:20:14;100452.70;;;26.83;59.21
27304;BME280;14791;52.392;13.092;2022-08-19T06:22:46;100461.66;;;26.88;59.08
27304;BME280;14791;52.392;13.092;2022-08-19T06:25:18;100472.00;;;26.92;58.94
27304;BME280;14791;52.392;13.092;2022-08-19T06:27:47;100485.38;;;26.98;58.77
27304;BME280;14791;52.392;13.092;2022-08-19T06:30:16;100500.70;;;27.03;58.69
27304;BME280;14791;52.392;13.092;2022-08-19T06:32:44;100509.98;;;27.09;58.55
27304;BME280;14791;52.392;13.092;2022-08-19T06:35:13;100514.30;;;27.14;58.42
27304;BME280;14791;52.392;13.092;2022-08-19T06:37:42;100516.62;;;27.17;58.33
27304;BME280;14791;52.392;13.092;2022-08-19T06:40:12;100519.94;;;27.23;58.18
27304;BME280;14791;52.392;13.092;2022-08-19T06:42:41;100523.42;;;27.28;58.16
27304;BME280;14791;52.392;13.092;2022-08-19T06:45:10;100524.47;;;27.33;58.15
27304;BME280;14791;52.392;13.092;2022-08-19T06:47:39;100509.60;;;27.39;58.06
27304;BME280;14791;52.392;13.092;2022-08-19T06:50:09;100504.77;;;27.47;57.98
27304;BME280;14791;52.392;13.092;2022-08-19T06:52:39;100502.76;;;27.52;57.74
27304;BME280;14791;52.392;13.092;2022-08-19T06:55:08;100508.25;;;27.58;57.56
27304;BME280;14791;52.392;13.092;2022-08-19T06:57:37;100499.05;;;27.62;57.47
27304;BME280;14791;52.392;13.092;2022-08-19T07:00:07;100496.84;;;27.68;57.31
27304;BME280;14791;52.392;13.092;2022-08-19T07:02:37;100490.92;;;27.71;57.43
27304;BME280;14791;52.392;13.092;2022-08-19T07:05:07;100497.23;;;27.78;57.56
27304;BME280;14791;52.392;13.092;2022-08-19T07:07:36;100492.92;;;27.87;57.48
27304;BME280;14791;52.392;13.092;2022-08-19T07:10:06;100493.75;;;27.94;57.21
27304;BME280;14791;52.392;13.092;2022-08-19T07:12:35;100497.66;;;28.02;57.05
27304;BME280;14791;52.392;13.092;2022-08-19T07:15:05;100500.89;;;28.08;56.87
27304;BME280;14791;52.392;13.092;2022-08-19T07:17:36;100499.70;;;28.13;56.97
27304;BME280;14791;52.392;13.092;2022-08-19T07:20:07;100498.86;;;28.19;56.74
27304;BME280;14791;52.392;13.092;2022-08-19T07:22:37;100508.36;;;28.24;56.65
27304;BME280;14791;52.392;13.092;2022-08-19T07:25:08;100519.53;;;28.29;56.58
27304;BME280;14791;52.392;13.092;2022-08-19T07:27:37;100522.16;;;28.33;56.35
27304;BME280;14791;52.392;13.092;2022-08-19T07:30:08;100529.96;;;28.36;56.26
27304;BME280;14791;52.392;13.092;2022-08-19T07:32:38;100528.15;;;28.39;56.20
27304;BME280;14791;52.392;13.092;2022-08-19T07:35:07;100537.66;;;28.43;56.15
27304;BME280;14791;52.392;13.092;2022-08-19T07:37:37;100548.55;;;28.47;55.90
27304;BME280;14791;52.392;13.092;2022-08-19T07:40:08;100558.03;;;28.51;55.79
27304;BME280;14791;52.392;13.092;2022-08-19T07:42:37;100557.92;;;28.55;55.76
27304;BME280;14791;52.392;13.092;2022-08-19T07:45:06;100550.94;;;28.59;55.61
27304;BME280;14791;52.392;13.092;2022-08-19T07:47:35;100550.19;;;28.61;55.57
27304;BME280;14791;52.392;13.092;2022-08-19T07:50:07;100550.91;;;28.66;55.55
27304;BME280;14791;52.392;13.092;2022-08-19T07:52:37;100550.67;;;28.68;55.46
27304;BME280;14791;52.392;13.092;2022-08-19T07:55:09;100550.23;;;28.71;55.49
27304;BME280;14791;52.392;13.092;2022-08-19T07:57:38;100556.98;;;28.75;55.41
27304;BME280;14791;52.392;13.092;2022-08-19T08:00:07;100551.04;;;28.78;55.30
27304;BME280;14791;52.392;13.092;2022-08-19T08:02:38;100563.53;;;28.80;55.02
27304;BME280;14791;52.392;13.092;2022-08-19T08:05:10;100554.00;;;28.83;54.95
27304;BME280;14791;52.392;13.092;2022-08-19T08:07:57;100555.67;;;28.84;55.03
27304;BME280;14791;52.392;13.092;2022-08-19T08:10:44;100568.13;;;28.87;55.05
27304;BME280;14791;52.392;13.092;2022-08-19T08:13:13;100574.26;;;28.89;54.99
27304;BME280;14791;52.392;13.092;2022-08-19T08:15:42;100577.39;;;28.92;54.84
27304;BME280;14791;52.392;13.092;2022-08-19T08:18:12;100568.19;;;28.96;54.70
27304;BME280;14791;52.392;13.092;2022-08-19T08:20:41;100574.08;;;28.99;54.66
27304;BME280;14791;52.392;13.092;2022-08-19T08:23:10;100579.79;;;29.04;54.71
27304;BME280;14791;52.392;13.092;2022-08-19T08:25:55;100584.75;;;29.12;54.69
27304;BME280;14791;52.392;13.092;2022-08-19T08:28:26;100578.34;;;29.18;54.61
27304;BME280;14791;52.392;13.092;2022-08-19T08:30:56;100576.41;;;29.25;54.36
27304;BME280;14791;52.392;13.092;2022-08-19T08:33:27;100574.78;;;29.33;54.21
27304;BME280;14791;52.392;13.092;2022-08-19T08:35:57;100571.45;;;29.40;54.09
27304;BME280;14791;52.392;13.092;2022-08-19T08:38:26;100573.62;;;29.47;54.10
27304;BME280;14791;52.392;13.092;2022-08-19T08:41:02;100576.83;;;29.54;53.80
27304;BME280;14791;52.392;13.092;2022-08-19T08:43:35;100578.08;;;29.58;53.51
27304;BME280;14791;52.392;13.092;2022-08-19T08:46:13;100583.58;;;29.58;53.48
27304;BME280;14791;52.392;13.092;2022-08-19T08:48:46;100589.38;;;29.59;53.27
27304;BME280;14791;52.392;13.092;2022-08-19T08:51:29;100581.12;;;29.59;53.37
27304;BME280;14791;52.392;13.092;2022-08-19T08:53:49;100584.96;;;29.58;53.36
27304;BME280;14791;52.392;13.092;2022-08-19T08:56:19;100586.96;;;29.60;53.50
27304;BME280;14791;52.392;13.092;2022-08-19T08:59:38;100595.30;;;29.62;53.45
27304;BME280;14791;52.392;13.092;2022-08-19T09:01:20;100602.91;;;29.67;53.34
27304;BME280;14791;52.392;13.092;2022-08-19T09:03:50;100592.83;;;29.70;53.20
27304;BME280;14791;52.392;13.092;2022-08-19T09:09:20;100599.33;;;29.76;53.05
27304;BME280;14791;52.392;13.092;2022-08-19T09:12:00;100609.20;;;29.74;53.08
27304;BME280;14791;52.392;13.092;2022-08-19T09:17:28;100617.01;;;29.77;53.01
27304;BME280;14791;52.392;13.092;2022-08-19T09:22:34;100600.70;;;29.76;52.90
27304;BME280;14791;52.392;13.092;2022-08-19T09:25:06;100599.87;;;29.75;52.67
27304;BME280;14791;52.392;13.092;2022-08-19T09:27:37;100598.71;;;29.74;52.44
27304;BME280;14791;52.392;13.092;2022-08-19T09:30:10;100598.71;;;29.74;52.51
27304;BME280;14791;52.392;13.092;2022-08-19T09:32:40;100605.84;;;29.72;52.47
27304;BME280;14791;52.392;13.092;2022-08-19T09:35:10;100601.08;;;29.70;52.39
27304;BME280;14791;52.392;13.092;2022-08-19T09:37:41;100602.91;;;29.67;52.25
27304;BME280;14791;52.392;13.092;2022-08-19T09:40:11;100599.18;;;29.64;52.38
27304;BME280;14791;52.392;13.092;2022-08-19T09:42:41;100594.89;;;29.59;52.43
27304;BME280;14791;52.392;13.092;2022-08-19T09:45:11;100595.34;;;29.56;52.53
27304;BME280;14791;52.392;13.092;2022-08-19T09:47:40;100595.47;;;29.52;52.55
27304;BME280;14791;52.392;13.092;2022-08-19T09:50:10;100590.95;;;29.48;52.57
27304;BME280;14791;52.392;13.092;2022-08-19T09:52:40;100594.38;;;29.43;52.60
27304;BME280;14791;52.392;13.092;2022-08-19T09:55:10;100592.20;;;29.36;52.68
27304;BME280;14791;52.392;13.092;2022-08-19T09:57:39;100595.41;;;29.33;52.82
27304;BME280;14791;52.392;13.092;2022-08-19T10:00:09;100602.70;;;29.30;52.85
27304;BME280;14791;52.392;13.092;2022-08-19T10:02:38;100603.70;;;29.26;52.88
27304;BME280;14791;52.392;13.092;2022-08-19T10:05:07;100604.65;;;29.23;52.91
27304;BME280;14791;52.392;13.092;2022-08-19T10:07:54;100601.81;;;29.20;53.01
27304;BME280;14791;52.392;13.092;2022-08-19T10:10:23;100602.47;;;29.16;53.17
27304;BME280;14791;52.392;13.092;2022-08-19T10:12:52;100602.72;;;29.14;53.21
27304;BME280;14791;52.392;13.092;2022-08-19T10:15:22;100598.17;;;29.11;53.11
27304;BME280;14791;52.392;13.092;2022-08-19T10:17:51;100595.33;;;29.08;53.17
27304;BME280;14791;52.392;13.092;2022-08-19T10:20:20;100598.70;;;29.03;53.29
27304;BME280;14791;52.392;13.092;2022-08-19T10:22:50;100589.53;;;29.00;53.34
27304;BME280;14791;52.392;13.092;2022-08-19T10:25:19;100589.65;;;28.96;53.46
27304;BME280;14791;52.392;13.092;2022-08-19T10:27:48;100591.56;;;28.96;53.64
27304;BME280;14791;52.392;13.092;2022-08-19T10:30:17;100592.73;;;28.97;53.62
27304;BME280;14791;52.392;13.092;2022-08-19T10:32:46;100589.98;;;28.97;53.56
27304;BME280;14791;52.392;13.092;2022-08-19T10:35:15;100589.35;;;28.95;53.60
27304;BME280;14791;52.392;13.092;2022-08-19T10:37:44;100584.89;;;28.94;53.54
27304;BME280;14791;52.392;13.092;2022-08-19T10:40:13;100592.09;;;28.95;53.52
27304;BME280;14791;52.392;13.092;2022-08-19T10:42:42;100584.59;;;28.93;53.52
27304;BME280;14791;52.392;13.092;2022-08-19T10:45:12;100591.67;;;28.92;53.48
27304;BME280;14791;52.392;13.092;2022-08-19T10:47:41;100586.09;;;28.89;53.47
27304;BME280;14791;52.392;13.092;2022-08-19T10:50:10;100590.33;;;28.85;53.52
27304;BME280;14791;52.392;13.092;2022-08-19T10:52:57;100589.73;;;28.83;53.53
27304;BME280;14791;52.392;13.092;2022-08-19T10:55:26;100586.47;;;28.77;53.70
27304;BME280;14791;52.392;13.092;2022-08-19T10:58:15;100583.42;;;28.76;53.83
27304;BME280;14791;52.392;13.092;2022-08-19T11:00:51;100590.20;;;28.73;53.89
27304;BME280;14791;52.392;13.092;2022-08-19T11:03:16;100589.56;;;28.71;53.85
27304;BME280;14791;52.392;13.092;2022-08-19T11:05:46;100609.01;;;28.70;53.80
27304;BME280;14791;52.392;13.092;2022-08-19T11:08:16;100607.54;;;28.67;53.77
27304;BME280;14791;52.392;13.092;2022-08-19T11:10:45;100603.33;;;28.65;53.76
27304;BME280;14791;52.392;13.092;2022-08-19T11:13:14;100610.09;;;28.62;53.71
27304;BME280;14791;52.392;13.092;2022-08-19T11:15:43;100603.88;;;28.57;53.86
27304;BME280;14791;52.392;13.092;2022-08-19T11:18:14;100604.62;;;28.55;53.97
27304;BME280;14791;52.392;13.092;2022-08-19T11:20:44;100608.11;;;28.53;54.01
27304;BME280;14791;52.392;13.092;2022-08-19T11:23:13;100607.80;;;28.52;53.99
27304;BME280;14791;52.392;13.092;2022-08-19T11:25:42;100609.38;;;28.51;53.85
27304;BME280;14791;52.392;13.092;2022-08-19T11:28:11;100607.28;;;28.46;53.89
27304;BME280;14791;52.392;13.092;2022-08-19T11:30:40;100607.69;;;28.43;53.90
27304;BME280;14791;52.392;13.092;2022-08-19T11:33:09;100612.25;;;28.40;54.05
27304;BME280;14791;52.392;13.092;2022-08-19T11:35:40;100604.75;;;28.38;54.15
27304;BME280;14791;52.392;13.092;2022-08-19T11:38:09;100609.91;;;28.37;54.19
27304;BME280;14791;52.392;13.092;2022-08-19T11:40:39;100614.03;;;28.37;54.25
27304;BME280;14791;52.392;13.092;2022-08-19T11:43:09;100609.91;;;28.37;54.25
27304;BME280;14791;52.392;13.092;2022-08-19T11:45:38;100613.73;;;28.36;54.23
27304;BME280;14791;52.392;13.092;2022-08-19T11:48:07;100618.14;;;28.37;54.15
27304;BME280;14791;52.392;13.092;2022-08-19T11:50:36;100623.01;;;28.35;54.16
27304;BME280;14791;52.392;13.092;2022-08-19T11:53:06;100624.91;;;28.34;54.14
27304;BME280;14791;52.392;13.092;2022-08-19T11:55:38;100626.19;;;28.32;54.16
27304;BME280;14791;52.392;13.092;2022-08-19T11:58:07;100632.02;;;28.33;54.19
27304;BME280;14791;52.392;13.092;2022-08-19T12:00:38;100638.02;;;28.32;54.17
27304;BME280;14791;52.392;13.092;2022-08-19T12:03:09;100630.64;;;28.33;54.17
27304;BME280;14791;52.392;13.092;2022-08-19T12:05:40;100636.13;;;28.33;54.20
27304;BME280;14791;52.392;13.092;2022-08-19T12:08:10;100630.64;;;28.33;54.15
27304;BME280;14791;52.392;13.092;2022-08-19T12:10:41;100634.77;;;28.33;54.18
27304;BME280;14791;52.392;13.092;2022-08-19T12:13:11;100636.13;;;28.33;54.26
27304;BME280;14791;52.392;13.092;2022-08-19T12:15:41;100641.92;;;28.34;54.25
27304;BME280;14791;52.392;13.092;2022-08-19T12:18:10;100640.86;;;28.35;54.15
27304;BME280;14791;52.392;13.092;2022-08-19T12:20:43;100641.19;;;28.36;54.12
27304;BME280;14791;52.392;13.092;2022-08-19T12:23:13;100642.87;;;28.37;54.14
27304;BME280;14791;52.392;13.092;2022-08-19T12:25:47;100648.16;;;28.38;54.20
27304;BME280;14791;52.392;13.092;2022-08-19T12:28:23;100651.00;;;28.41;54.07
27304;BME280;14791;52.392;13.092;2022-08-19T12:30:53;100654.82;;;28.40;54.04
27304;BME280;14791;52.392;13.092;2022-08-19T12:33:22;100651.73;;;28.39;53.93
27304;BME280;14791;52.392;13.092;2022-08-19T12:35:52;100655.86;;;28.39;53.84
27304;BME280;14791;52.392;13.092;2022-08-19T12:38:21;100660.72;;;28.37;53.77
27304;BME280;14791;52.392;13.092;2022-08-19T12:40:51;100661.69;;;28.33;53.82
27304;BME280;14791;52.392;13.092;2022-08-19T12:43:20;100660.52;;;28.32;53.92
27304;BME280;14791;52.392;13.092;2022-08-19T12:45:49;100660.22;;;28.31;53.97
27304;BME280;14791;52.392;13.092;2022-08-19T12:48:18;100652.28;;;28.32;54.01
27304;BME280;14791;52.392;13.092;2022-08-19T12:50:47;100643.00;;;28.33;54.08
27304;BME280;14791;52.392;13.092;2022-08-19T12:53:16;100640.66;;;28.36;54.08
27304;BME280;14791;52.392;13.092;2022-08-19T12:55:45;100644.57;;;28.38;54.05
27304;BME280;14791;52.392;13.092;2022-08-19T12:58:14;100649.63;;;28.41;53.91
27304;BME280;14791;52.392;13.092;2022-08-19T13:00:45;100655.42;;;28.42;54.00
27304;BME280;14791;52.392;13.092;2022-08-19T13:03:14;100657.77;;;28.45;53.94
27304;BME280;14791;52.392;13.092;2022-08-19T13:05:43;100660.31;;;28.47;53.83
27304;BME280;14791;52.392;13.092;2022-08-19T13:08:12;100670.80;;;28.47;53.82